sensor_id;sensor_type;location;lat;lon;timestamp;temperature;humidity
74416;SHT31;62850;42.428;25.618;2023-05-07T00:02:02;14.36;69.92
74416;SHT31;62850;42.428;25.618;2023-05-07T00:04:29;14.32;69.26
74416;SHT31;62850;42.428;25.618;2023-05-07T00:07:02;14.30;69.86
74416;SHT31;62850;42.428;25.618;2023-05-07T00:09:28;14.26;69.53
74416;SHT31;62850;42.428;25.618;2023-05-07T00:11:53;14.10;69.57
74416;SHT31;62850;42.428;25.618;2023-05-07T00:14:19;13.96;69.31
74416;SHT31;62850;42.428;25.618;2023-05-07T00:16:46;13.87;69.72
74416;SHT31;62850;42.428;25.618;2023-05-07T00:19:12;13.93;69.57
74416;SHT31;62850;42.428;25.618;2023-05-07T00:21:38;13.92;69.33
74416;SHT31;62850;42.428;25.618;2023-05-07T00:24:04;13.92;68.73
74416;SHT31;62850;42.428;25.618;2023-05-07T00:26:30;13.85;68.78
74416;SHT31;62850;42.428;25.618;2023-05-07T00:28:57;13.85;68.99
74416;SHT31;62850;42.428;25.618;2023-05-07T00:31:23;13.86;68.87
74416;SHT31;62850;42.428;25.618;2023-05-07T00:33:49;13.78;69.28
74416;SHT31;62850;42.428;25.618;2023-05-07T00:36:16;13.68;68.34
74416;SHT31;62850;42.428;25.618;2023-05-07T00:38:42;13.73;68.22
74416;SHT31;62850;42.428;25.618;2023-05-07T00:41:09;13.79;68.17
74416;SHT31;62850;42.428;25.618;2023-05-07T00:43:34;13.85;67.86
74416;SHT31;62850;42.428;25.618;2023-05-07T00:46:00;13.82;67.90
74416;SHT31;62850;42.428;25.618;2023-05-07T00:48:27;13.79;67.72
74416;SHT31;62850;42.428;25.618;2023-05-07T00:50:54;13.65;68.17
74416;SHT31;62850;42.428;25.618;2023-05-07T00:53:20;13.69;67.74
74416;SHT31;62850;42.428;25.618;2023-05-07T00:55:46;13.75;67.21
74416;SHT31;62850;42.428;25.618;2023-05-07T00:58:13;13.71;67.46
74416;SHT31;62850;42.428;25.618;2023-05-07T01:00:41;13.73;66.62
74416;SHT31;62850;42.428;25.618;2023-05-07T01:03:07;13.73;66.06
74416;SHT31;62850;42.428;25.618;2023-05-07T01:05:33;13.72;65.04
74416;SHT31;62850;42.428;25.618;2023-05-07T01:08:02;13.79;64.78
74416;SHT31;62850;42.428;25.618;2023-05-07T01:10:28;13.81;64.75
74416;SHT31;62850;42.428;25.618;2023-05-07T01:12:57;13.83;64.94
74416;SHT31;62850;42.428;25.618;2023-05-07T01:15:24;13.89;65.22
74416;SHT31;62850;42.428;25.618;2023-05-07T01:17:50;13.90;65.74
74416;SHT31;62850;42.428;25.618;2023-05-07T01:20:17;13.96;66.06
74416;SHT31;62850;42.428;25.618;2023-05-07T01:22:43;14.02;66.25
74416;SHT31;62850;42.428;25.618;2023-05-07T01:25:10;13.99;66.63
74416;SHT31;62850;42.428;25.618;2023-05-07T01:27:36;13.99;67.02
74416;SHT31;62850;42.428;25.618;2023-05-07T01:30:06;13.95;67.62
74416;SHT31;62850;42.428;25.618;2023-05-07T01:32:52;13.93;68.07
74416;SHT31;62850;42.428;25.618;2023-05-07T01:35:20;13.89;68.62
74416;SHT31;62850;42.428;25.618;2023-05-07T01:37:48;13.85;68.96
74416;SHT31;62850;42.428;25.618;2023-05-07T01:40:14;13.78;69.46
74416;SHT31;62850;42.428;25.618;2023-05-07T01:42:43;13.79;69.99
74416;SHT31;62850;42.428;25.618;2023-05-07T01:45:09;13.79;70.15
74416;SHT31;62850;42.428;25.618;2023-05-07T01:47:36;13.79;70.19
74416;SHT31;62850;42.428;25.618;2023-05-07T01:50:06;13.81;70.10
74416;SHT31;62850;42.428;25.618;2023-05-07T01:52:34;13.83;70.02
74416;SHT31;62850;42.428;25.618;2023-05-07T01:55:01;13.85;69.72
74416;SHT31;62850;42.428;25.618;2023-05-07T01:57:29;13.87;69.47
74416;SHT31;62850;42.428;25.618;2023-05-07T01:59:56;13.98;69.37
74416;SHT31;62850;42.428;25.618;2023-05-07T02:02:22;13.98;69.11
74416;SHT31;62850;42.428;25.618;2023-05-07T02:04:48;13.95;69.08
74416;SHT31;62850;42.428;25.618;2023-05-07T02:07:14;13.98;68.97
74416;SHT31;62850;42.428;25.618;2023-05-07T02:09:41;13.96;69.11
74416;SHT31;62850;42.428;25.618;2023-05-07T02:12:06;13.87;69.46
74416;SHT31;62850;42.428;25.618;2023-05-07T02:14:33;13.79;69.94
74416;SHT31;62850;42.428;25.618;2023-05-07T02:17:00;13.73;70.32
74416;SHT31;62850;42.428;25.618;2023-05-07T02:19:27;13.71;70.74
74416;SHT31;62850;42.428;25.618;2023-05-07T02:21:54;13.69;71.02
74416;SHT31;62850;42.428;25.618;2023-05-07T02:24:20;13.66;71.48
74416;SHT31;62850;42.428;25.618;2023-05-07T02:26:46;13.73;71.59
74416;SHT31;62850;42.428;25.618;2023-05-07T02:29:12;13.79;71.62
74416;SHT31;62850;42.428;25.618;2023-05-07T02:31:38;13.79;71.81
74416;SHT31;62850;42.428;25.618;2023-05-07T02:34:05;13.81;71.58
74416;SHT31;62850;42.428;25.618;2023-05-07T02:36:30;13.72;71.47
74416;SHT31;62850;42.428;25.618;2023-05-07T02:38:57;13.64;71.82
74416;SHT31;62850;42.428;25.618;2023-05-07T02:41:23;13.66;71.62
74416;SHT31;62850;42.428;25.618;2023-05-07T02:43:49;13.64;71.38
74416;SHT31;62850;42.428;25.618;2023-05-07T02:46:15;13.58;71.96
74416;SHT31;62850;42.428;25.618;2023-05-07T02:48:41;13.58;71.59
74416;SHT31;62850;42.428;25.618;2023-05-07T02:51:07;13.52;71.64
74416;SHT31;62850;42.428;25.618;2023-05-07T02:53:33;13.55;71.83
74416;SHT31;62850;42.428;25.618;2023-05-07T02:56:00;13.61;71.32
74416;SHT31;62850;42.428;25.618;2023-05-07T02:58:27;13.62;71.39
74416;SHT31;62850;42.428;25.618;2023-05-07T03:00:53;13.55;71.88
74416;SHT31;62850;42.428;25.618;2023-05-07T03:03:20;13.47;72.30
74416;SHT31;62850;42.428;25.618;2023-05-07T03:05:46;13.48;72.22
74416;SHT31;62850;42.428;25.618;2023-05-07T03:08:11;13.55;72.04
74416;SHT31;62850;42.428;25.618;2023-05-07T03:10:38;13.55;72.00
74416;SHT31;62850;42.428;25.618;2023-05-07T03:13:05;13.58;72.14
74416;SHT31;62850;42.428;25.618;2023-05-07T03:15:31;13.64;71.96
74416;SHT31;62850;42.428;25.618;2023-05-07T03:17:57;13.65;72.09
74416;SHT31;62850;42.428;25.618;2023-05-07T03:20:23;13.73;71.80
74416;SHT31;62850;42.428;25.618;2023-05-07T03:22:49;13.79;71.58
74416;SHT31;62850;42.428;25.618;2023-05-07T03:25:15;13.85;71.46
74416;SHT31;62850;42.428;25.618;2023-05-07T03:27:42;13.82;71.45
74416;SHT31;62850;42.428;25.618;2023-05-07T03:30:09;13.85;71.57
74416;SHT31;62850;42.428;25.618;2023-05-07T03:32:35;13.90;71.33
74416;SHT31;62850;42.428;25.618;2023-05-07T03:35:02;13.95;71.58
74416;SHT31;62850;42.428;25.618;2023-05-07T03:37:28;13.99;71.61
74416;SHT31;62850;42.428;25.618;2023-05-07T03:39:55;14.02;71.54
74416;SHT31;62850;42.428;25.618;2023-05-07T03:42:22;14.09;71.44
74416;SHT31;62850;42.428;25.618;2023-05-07T03:44:48;14.12;71.31
74416;SHT31;62850;42.428;25.618;2023-05-07T03:47:14;14.24;71.24
74416;SHT31;62850;42.428;25.618;2023-05-07T03:49:40;14.29;71.32
74416;SHT31;62850;42.428;25.618;2023-05-07T03:52:06;14.29;71.38
74416;SHT31;62850;42.428;25.618;2023-05-07T03:54:32;14.36;71.60
74416;SHT31;62850;42.428;25.618;2023-05-07T03:56:58;14.37;71.60
74416;SHT31;62850;42.428;25.618;2023-05-07T03:59:24;14.45;71.46
74416;SHT31;62850;42.428;25.618;2023-05-07T04:01:51;14.47;71.50
74416;SHT31;62850;42.428;25.618;2023-05-07T04:04:17;14.50;71.39
74416;SHT31;62850;42.428;25.618;2023-05-07T04:06:44;14.56;71.17
74416;SHT31;62850;42.428;25.618;2023-05-07T04:09:10;14.68;70.86
74416;SHT31;62850;42.428;25.618;2023-05-07T04:11:39;14.77;70.77
74416;SHT31;62850;42.428;25.618;2023-05-07T04:14:06;14.75;70.74
74416;SHT31;62850;42.428;25.618;2023-05-07T04:16:32;14.85;70.48
74416;SHT31;62850;42.428;25.618;2023-05-07T04:19:00;15.01;69.86
74416;SHT31;62850;42.428;25.618;2023-05-07T04:21:26;15.09;69.26
74416;SHT31;62850;42.428;25.618;2023-05-07T04:23:52;15.19;68.72
74416;SHT31;62850;42.428;25.618;2023-05-07T04:26:18;15.25;68.49
74416;SHT31;62850;42.428;25.618;2023-05-07T04:28:44;15.30;68.16
74416;SHT31;62850;42.428;25.618;2023-05-07T04:31:10;15.42;67.37
74416;SHT31;62850;42.428;25.618;2023-05-07T04:33:36;15.47;66.72
74416;SHT31;62850;42.428;25.618;2023-05-07T04:36:02;15.59;66.61
74416;SHT31;62850;42.428;25.618;2023-05-07T04:38:29;15.67;66.28
74416;SHT31;62850;42.428;25.618;2023-05-07T04:40:56;15.76;65.87
74416;SHT31;62850;42.428;25.618;2023-05-07T04:43:22;15.90;65.73
74416;SHT31;62850;42.428;25.618;2023-05-07T04:45:50;15.94;65.91
74416;SHT31;62850;42.428;25.618;2023-05-07T04:48:16;16.07;66.33
74416;SHT31;62850;42.428;25.618;2023-05-07T04:50:44;16.15;66.49
74416;SHT31;62850;42.428;25.618;2023-05-07T04:53:12;16.18;66.58
74416;SHT31;62850;42.428;25.618;2023-05-07T04:55:38;16.19;66.77
74416;SHT31;62850;42.428;25.618;2023-05-07T04:58:05;16.18;66.14
74416;SHT31;62850;42.428;25.618;2023-05-07T05:00:30;16.18;66.44
74416;SHT31;62850;42.428;25.618;2023-05-07T05:02:56;16.17;66.16
74416;SHT31;62850;42.428;25.618;2023-05-07T05:05:22;16.18;66.08
74416;SHT31;62850;42.428;25.618;2023-05-07T05:07:48;16.25;65.90
74416;SHT31;62850;42.428;25.618;2023-05-07T05:10:14;16.31;65.85
74416;SHT31;62850;42.428;25.618;2023-05-07T05:12:42;16.33;62.63
74416;SHT31;62850;42.428;25.618;2023-05-07T05:15:08;16.39;62.24
74416;SHT31;62850;42.428;25.618;2023-05-07T05:17:34;16.52;62.64
74416;SHT31;62850;42.428;25.618;2023-05-07T05:20:01;16.59;61.68
74416;SHT31;62850;42.428;25.618;2023-05-07T05:22:29;16.62;60.73
74416;SHT31;62850;42.428;25.618;2023-05-07T05:24:57;16.70;61.45
74416;SHT31;62850;42.428;25.618;2023-05-07T05:27:23;16.80;61.73
74416;SHT31;62850;42.428;25.618;2023-05-07T05:29:49;16.89;61.82
74416;SHT31;62850;42.428;25.618;2023-05-07T05:32:16;16.96;60.84
74416;SHT31;62850;42.428;25.618;2023-05-07T05:34:43;17.00;61.35
74416;SHT31;62850;42.428;25.618;2023-05-07T05:37:09;17.06;60.76
74416;SHT31;62850;42.428;25.618;2023-05-07T05:39:36;17.14;59.91
74416;SHT31;62850;42.428;25.618;2023-05-07T05:42:02;17.18;60.33
74416;SHT31;62850;42.428;25.618;2023-05-07T05:44:29;17.26;58.72
74416;SHT31;62850;42.428;25.618;2023-05-07T05:46:56;17.32;58.38
74416;SHT31;62850;42.428;25.618;2023-05-07T05:49:24;17.39;57.15
74416;SHT31;62850;42.428;25.618;2023-05-07T05:51:50;17.49;55.28
74416;SHT31;62850;42.428;25.618;2023-05-07T05:54:17;17.47;53.35
74416;SHT31;62850;42.428;25.618;2023-05-07T05:56:44;17.49;52.75
74416;SHT31;62850;42.428;25.618;2023-05-07T05:59:10;17.57;55.30
74416;SHT31;62850;42.428;25.618;2023-05-07T06:01:36;17.57;57.58
74416;SHT31;62850;42.428;25.618;2023-05-07T06:04:02;17.57;60.09
74416;SHT31;62850;42.428;25.618;2023-05-07T06:06:28;17.51;61.06
74416;SHT31;62850;42.428;25.618;2023-05-07T06:08:54;17.64;61.12
74416;SHT31;62850;42.428;25.618;2023-05-07T06:11:20;17.64;61.31
74416;SHT31;62850;42.428;25.618;2023-05-07T06:13:47;17.65;60.42
74416;SHT31;62850;42.428;25.618;2023-05-07T06:16:14;17.58;59.77
74416;SHT31;62850;42.428;25.618;2023-05-07T06:18:40;17.58;59.88
74416;SHT31;62850;42.428;25.618;2023-05-07T06:21:06;17.58;60.54
74416;SHT31;62850;42.428;25.618;2023-05-07T06:23:32;17.51;59.74
74416;SHT31;62850;42.428;25.618;2023-05-07T06:25:58;17.37;59.16
74416;SHT31;62850;42.428;25.618;2023-05-07T06:28:24;17.38;57.74
74416;SHT31;62850;42.428;25.618;2023-05-07T06:30:50;17.39;57.51
74416;SHT31;62850;42.428;25.618;2023-05-07T06:33:16;17.52;57.35
74416;SHT31;62850;42.428;25.618;2023-05-07T06:35:43;17.65;56.36
74416;SHT31;62850;42.428;25.618;2023-05-07T06:38:09;17.69;55.43
74416;SHT31;62850;42.428;25.618;2023-05-07T06:40:35;17.75;54.80
74416;SHT31;62850;42.428;25.618;2023-05-07T06:43:02;17.78;53.91
74416;SHT31;62850;42.428;25.618;2023-05-07T06:45:29;17.86;54.45
74416;SHT31;62850;42.428;25.618;2023-05-07T06:47:55;17.90;54.29
74416;SHT31;62850;42.428;25.618;2023-05-07T06:50:21;18.02;53.22
74416;SHT31;62850;42.428;25.618;2023-05-07T06:52:48;18.06;53.03
74416;SHT31;62850;42.428;25.618;2023-05-07T06:55:14;18.16;53.14
74416;SHT31;62850;42.428;25.618;2023-05-07T06:57:40;18.20;52.58
74416;SHT31;62850;42.428;25.618;2023-05-07T07:00:06;18.34;51.95
74416;SHT31;62850;42.428;25.618;2023-05-07T07:02:34;18.29;52.56
74416;SHT31;62850;42.428;25.618;2023-05-07T07:05:02;18.23;51.07
74416;SHT31;62850;42.428;25.618;2023-05-07T07:07:28;18.25;50.85
74416;SHT31;62850;42.428;25.618;2023-05-07T07:09:54;18.34;49.97
74416;SHT31;62850;42.428;25.618;2023-05-07T07:12:21;18.47;49.92
74416;SHT31;62850;42.428;25.618;2023-05-07T07:14:48;18.51;49.43
74416;SHT31;62850;42.428;25.618;2023-05-07T07:17:13;18.57;49.10
74416;SHT31;62850;42.428;25.618;2023-05-07T07:19:40;18.63;48.84
74416;SHT31;62850;42.428;25.618;2023-05-07T07:22:07;18.81;48.46
74416;SHT31;62850;42.428;25.618;2023-05-07T07:24:33;18.88;46.75
74416;SHT31;62850;42.428;25.618;2023-05-07T07:27:01;18.98;46.43
74416;SHT31;62850;42.428;25.618;2023-05-07T07:29:28;19.14;46.42
74416;SHT31;62850;42.428;25.618;2023-05-07T07:31:53;19.20;45.24
74416;SHT31;62850;42.428;25.618;2023-05-07T07:34:19;19.39;44.76
74416;SHT31;62850;42.428;25.618;2023-05-07T07:36:47;19.70;44.34
74416;SHT31;62850;42.428;25.618;2023-05-07T07:39:14;20.04;43.95
74416;SHT31;62850;42.428;25.618;2023-05-07T07:41:39;20.32;43.53
74416;SHT31;62850;42.428;25.618;2023-05-07T07:44:05;20.63;43.41
74416;SHT31;62850;42.428;25.618;2023-05-07T07:46:33;21.13;42.64
74416;SHT31;62850;42.428;25.618;2023-05-07T07:49:01;21.35;41.27
74416;SHT31;62850;42.428;25.618;2023-05-07T07:51:27;21.62;40.63
74416;SHT31;62850;42.428;25.618;2023-05-07T07:53:54;22.03;39.45
74416;SHT31;62850;42.428;25.618;2023-05-07T07:56:19;22.40;38.82
74416;SHT31;62850;42.428;25.618;2023-05-07T07:58:46;22.54;37.56
74416;SHT31;62850;42.428;25.618;2023-05-07T08:01:11;22.74;38.07
74416;SHT31;62850;42.428;25.618;2023-05-07T08:03:38;22.60;37.75
74416;SHT31;62850;42.428;25.618;2023-05-07T08:06:05;23.01;37.06
74416;SHT31;62850;42.428;25.618;2023-05-07T08:08:31;23.09;36.54
74416;SHT31;62850;42.428;25.618;2023-05-07T08:10:58;23.16;34.82
74416;SHT31;62850;42.428;25.618;2023-05-07T08:13:24;23.35;35.78
74416;SHT31;62850;42.428;25.618;2023-05-07T08:15:50;23.38;35.20
74416;SHT31;62850;42.428;25.618;2023-05-07T08:18:17;23.55;34.12
74416;SHT31;62850;42.428;25.618;2023-05-07T08:20:43;23.67;34.19
74416;SHT31;62850;42.428;25.618;2023-05-07T08:23:09;23.38;33.97
74416;SHT31;62850;42.428;25.618;2023-05-07T08:25:35;23.63;33.18
74416;SHT31;62850;42.428;25.618;2023-05-07T08:28:00;23.38;33.05
74416;SHT31;62850;42.428;25.618;2023-05-07T08:30:26;23.66;33.42
74416;SHT31;62850;42.428;25.618;2023-05-07T08:32:52;23.69;33.06
74416;SHT31;62850;42.428;25.618;2023-05-07T08:35:18;23.71;32.96
74416;SHT31;62850;42.428;25.618;2023-05-07T08:37:45;23.80;33.37
74416;SHT31;62850;42.428;25.618;2023-05-07T08:40:11;24.06;32.35
74416;SHT31;62850;42.428;25.618;2023-05-07T08:42:37;24.28;32.40
74416;SHT31;62850;42.428;25.618;2023-05-07T08:45:09;24.36;32.01
74416;SHT31;62850;42.428;25.618;2023-05-07T08:47:47;24.06;32.61
74416;SHT31;62850;42.428;25.618;2023-05-07T08:50:16;24.34;32.98
74416;SHT31;62850;42.428;25.618;2023-05-07T08:52:43;24.28;33.24
74416;SHT31;62850;42.428;25.618;2023-05-07T08:55:11;24.28;32.63
74416;SHT31;62850;42.428;25.618;2023-05-07T08:57:38;24.44;32.78
74416;SHT31;62850;42.428;25.618;2023-05-07T09:00:05;24.42;32.57
74416;SHT31;62850;42.428;25.618;2023-05-07T09:02:34;24.34;32.51
74416;SHT31;62850;42.428;25.618;2023-05-07T09:05:00;24.55;32.61
74416;SHT31;62850;42.428;25.618;2023-05-07T09:07:28;24.79;32.50
74416;SHT31;62850;42.428;25.618;2023-05-07T09:09:55;24.85;32.56
74416;SHT31;62850;42.428;25.618;2023-05-07T09:12:23;24.96;32.16
74416;SHT31;62850;42.428;25.618;2023-05-07T09:14:49;24.96;31.56
74416;SHT31;62850;42.428;25.618;2023-05-07T09:17:16;25.02;32.57
74416;SHT31;62850;42.428;25.618;2023-05-07T09:19:44;24.89;31.74
74416;SHT31;62850;42.428;25.618;2023-05-07T09:22:11;24.95;32.02
74416;SHT31;62850;42.428;25.618;2023-05-07T09:24:37;25.10;32.14
74416;SHT31;62850;42.428;25.618;2023-05-07T09:27:04;25.19;32.09
74416;SHT31;62850;42.428;25.618;2023-05-07T09:29:31;25.06;31.93
74416;SHT31;62850;42.428;25.618;2023-05-07T09:32:05;24.83;31.41
74416;SHT31;62850;42.428;25.618;2023-05-07T09:34:31;24.65;32.70
74416;SHT31;62850;42.428;25.618;2023-05-07T09:37:01;24.73;32.29
74416;SHT31;62850;42.428;25.618;2023-05-07T09:39:41;24.80;31.63
74416;SHT31;62850;42.428;25.618;2023-05-07T09:42:08;24.93;32.03
74416;SHT31;62850;42.428;25.618;2023-05-07T09:44:35;24.96;30.88
74416;SHT31;62850;42.428;25.618;2023-05-07T09:47:04;24.95;32.14
74416;SHT31;62850;42.428;25.618;2023-05-07T09:49:34;24.77;32.20
74416;SHT31;62850;42.428;25.618;2023-05-07T09:52:01;25.02;31.80
74416;SHT31;62850;42.428;25.618;2023-05-07T09:54:28;24.87;31.85
74416;SHT31;62850;42.428;25.618;2023-05-07T09:56:56;25.00;31.81
74416;SHT31;62850;42.428;25.618;2023-05-07T09:59:23;25.13;31.39
74416;SHT31;62850;42.428;25.618;2023-05-07T10:01:52;25.26;31.52
74416;SHT31;62850;42.428;25.618;2023-05-07T10:04:22;25.13;31.92
74416;SHT31;62850;42.428;25.618;2023-05-07T10:06:49;24.90;31.99
74416;SHT31;62850;42.428;25.618;2023-05-07T10:09:16;25.00;31.34
74416;SHT31;62850;42.428;25.618;2023-05-07T10:11:42;25.02;31.58
74416;SHT31;62850;42.428;25.618;2023-05-07T10:14:09;25.12;31.95
74416;SHT31;62850;42.428;25.618;2023-05-07T10:16:36;25.33;30.95
74416;SHT31;62850;42.428;25.618;2023-05-07T10:19:04;25.09;31.08
74416;SHT31;62850;42.428;25.618;2023-05-07T10:21:31;25.02;30.62
74416;SHT31;62850;42.428;25.618;2023-05-07T10:24:08;25.13;31.10
74416;SHT31;62850;42.428;25.618;2023-05-07T10:26:40;25.22;31.13
74416;SHT31;62850;42.428;25.618;2023-05-07T10:29:12;25.31;31.49
74416;SHT31;62850;42.428;25.618;2023-05-07T10:32:45;25.41;31.08
74416;SHT31;62850;42.428;25.618;2023-05-07T10:34:47;25.45;30.18
74416;SHT31;62850;42.428;25.618;2023-05-07T10:37:14;25.09;30.40
74416;SHT31;62850;42.428;25.618;2023-05-07T10:39:42;25.27;30.51
74416;SHT31;62850;42.428;25.618;2023-05-07T10:42:11;25.48;31.30
74416;SHT31;62850;42.428;25.618;2023-05-07T10:44:38;25.50;31.81
74416;SHT31;62850;42.428;25.618;2023-05-07T10:47:11;25.64;31.18
74416;SHT31;62850;42.428;25.618;2023-05-07T10:52:20;25.57;30.40
74416;SHT31;62850;42.428;25.618;2023-05-07T10:54:47;25.64;30.99
74416;SHT31;62850;42.428;25.618;2023-05-07T10:57:36;25.48;31.26
74416;SHT31;62850;42.428;25.618;2023-05-07T11:05:29;25.51;30.70
74416;SHT31;62850;42.428;25.618;2023-05-07T11:07:56;25.72;31.32
74416;SHT31;62850;42.428;25.618;2023-05-07T11:10:22;25.93;30.47
74416;SHT31;62850;42.428;25.618;2023-05-07T11:12:52;26.03;31.32
74416;SHT31;62850;42.428;25.618;2023-05-07T11:15:36;26.15;31.48
74416;SHT31;62850;42.428;25.618;2023-05-07T11:18:02;26.40;30.50
74416;SHT31;62850;42.428;25.618;2023-05-07T11:20:52;26.46;30.09
74416;SHT31;62850;42.428;25.618;2023-05-07T11:26:00;26.90;29.54
74416;SHT31;62850;42.428;25.618;2023-05-07T11:28:30;26.64;29.39
74416;SHT31;62850;42.428;25.618;2023-05-07T11:30:56;26.81;29.27
74416;SHT31;62850;42.428;25.618;2023-05-07T11:33:23;26.77;29.78
74416;SHT31;62850;42.428;25.618;2023-05-07T11:35:52;26.98;29.84
74416;SHT31;62850;42.428;25.618;2023-05-07T11:38:19;27.11;28.96
74416;SHT31;62850;42.428;25.618;2023-05-07T11:40:52;26.70;30.81
74416;SHT31;62850;42.428;25.618;2023-05-07T11:43:19;26.76;28.48
74416;SHT31;62850;42.428;25.618;2023-05-07T11:45:45;26.79;29.74
74416;SHT31;62850;42.428;25.618;2023-05-07T11:48:15;26.79;29.72
74416;SHT31;62850;42.428;25.618;2023-05-07T11:51:00;26.77;29.71
74416;SHT31;62850;42.428;25.618;2023-05-07T11:53:27;26.91;29.27
74416;SHT31;62850;42.428;25.618;2023-05-07T11:55:56;26.94;30.23
74416;SHT31;62850;42.428;25.618;2023-05-07T11:58:24;27.07;29.75
74416;SHT31;62850;42.428;25.618;2023-05-07T12:00:54;26.92;29.81
74416;SHT31;62850;42.428;25.618;2023-05-07T12:03:20;27.16;28.68
74416;SHT31;62850;42.428;25.618;2023-05-07T12:05:47;27.15;29.61
74416;SHT31;62850;42.428;25.618;2023-05-07T12:08:17;26.97;29.88
74416;SHT31;62850;42.428;25.618;2023-05-07T12:10:43;27.16;28.86
74416;SHT31;62850;42.428;25.618;2023-05-07T12:13:25;27.31;29.82
74416;SHT31;62850;42.428;25.618;2023-05-07T12:15:55;27.19;29.94
74416;SHT31;62850;42.428;25.618;2023-05-07T12:18:23;27.00;29.15
74416;SHT31;62850;42.428;25.618;2023-05-07T12:20:50;26.70;29.82
74416;SHT31;62850;42.428;25.618;2023-05-07T12:23:17;26.70;30.65
74416;SHT31;62850;42.428;25.618;2023-05-07T12:25:43;26.77;30.15
74416;SHT31;62850;42.428;25.618;2023-05-07T12:28:14;26.79;30.70
74416;SHT31;62850;42.428;25.618;2023-05-07T12:30:44;26.80;29.56
74416;SHT31;62850;42.428;25.618;2023-05-07T12:33:11;27.07;29.49
74416;SHT31;62850;42.428;25.618;2023-05-07T12:35:41;27.10;29.98
74416;SHT31;62850;42.428;25.618;2023-05-07T12:38:14;27.00;30.95
74416;SHT31;62850;42.428;25.618;2023-05-07T12:40:48;26.88;30.16
74416;SHT31;62850;42.428;25.618;2023-05-07T12:43:28;26.91;30.47
74416;SHT31;62850;42.428;25.618;2023-05-07T12:45:56;27.08;29.06
74416;SHT31;62850;42.428;25.618;2023-05-07T12:48:22;27.14;29.86
74416;SHT31;62850;42.428;25.618;2023-05-07T12:50:53;27.15;29.31
74416;SHT31;62850;42.428;25.618;2023-05-07T12:53:20;27.01;30.54
74416;SHT31;62850;42.428;25.618;2023-05-07T12:55:48;27.08;30.56
74416;SHT31;62850;42.428;25.618;2023-05-07T12:58:19;27.05;30.65
74416;SHT31;62850;42.428;25.618;2023-05-07T13:00:48;27.21;30.74
74416;SHT31;62850;42.428;25.618;2023-05-07T14:59:40;27.19;29.63
74416;SHT31;62850;42.428;25.618;2023-05-07T15:02:06;27.15;30.10
74416;SHT31;62850;42.428;25.618;2023-05-07T15:04:33;27.05;29.98
74416;SHT31;62850;42.428;25.618;2023-05-07T15:06:59;27.07;29.89
74416;SHT31;62850;42.428;25.618;2023-05-07T15:09:24;27.10;29.63
74416;SHT31;62850;42.428;25.618;2023-05-07T15:11:49;27.04;29.79
74416;SHT31;62850;42.428;25.618;2023-05-07T15:14:15;27.02;29.66
74416;SHT31;62850;42.428;25.618;2023-05-07T15:16:41;26.95;30.12
74416;SHT31;62850;42.428;25.618;2023-05-07T15:19:06;26.83;30.34
74416;SHT31;62850;42.428;25.618;2023-05-07T15:21:31;26.59;30.69
74416;SHT31;62850;42.428;25.618;2023-05-07T15:24:00;26.44;30.87
74416;SHT31;62850;42.428;25.618;2023-05-07T15:26:26;26.29;30.74
74416;SHT31;62850;42.428;25.618;2023-05-07T15:28:51;26.26;30.88
74416;SHT31;62850;42.428;25.618;2023-05-07T15:31:17;26.21;30.95
74416;SHT31;62850;42.428;25.618;2023-05-07T15:33:43;26.09;31.15
74416;SHT31;62850;42.428;25.618;2023-05-07T15:36:10;25.98;31.10
74416;SHT31;62850;42.428;25.618;2023-05-07T15:38:36;25.71;31.70
74416;SHT31;62850;42.428;25.618;2023-05-07T15:41:01;25.40;32.58
74416;SHT31;62850;42.428;25.618;2023-05-07T15:43:27;25.24;32.19
74416;SHT31;62850;42.428;25.618;2023-05-07T15:45:52;25.07;32.49
74416;SHT31;62850;42.428;25.618;2023-05-07T15:48:18;25.03;32.33
74416;SHT31;62850;42.428;25.618;2023-05-07T15:50:45;24.97;32.55
74416;SHT31;62850;42.428;25.618;2023-05-07T15:53:10;24.92;33.10
74416;SHT31;62850;42.428;25.618;2023-05-07T15:55:38;24.76;33.00
74416;SHT31;62850;42.428;25.618;2023-05-07T15:58:03;24.49;33.20
74416;SHT31;62850;42.428;25.618;2023-05-07T16:00:31;24.41;33.61
74416;SHT31;62850;42.428;25.618;2023-05-07T16:02:56;24.27;33.49
74416;SHT31;62850;42.428;25.618;2023-05-07T16:05:22;24.07;33.84
74416;SHT31;62850;42.428;25.618;2023-05-07T16:07:48;23.90;34.04
74416;SHT31;62850;42.428;25.618;2023-05-07T16:10:13;23.80;33.49
74416;SHT31;62850;42.428;25.618;2023-05-07T16:12:39;23.60;33.73
74416;SHT31;62850;42.428;25.618;2023-05-07T16:15:05;23.45;34.48
74416;SHT31;62850;42.428;25.618;2023-05-07T16:17:31;23.32;34.55
74416;SHT31;62850;42.428;25.618;2023-05-07T16:19:56;23.12;34.94
74416;SHT31;62850;42.428;25.618;2023-05-07T16:22:23;23.02;35.19
74416;SHT31;62850;42.428;25.618;2023-05-07T16:24:49;22.97;35.52
74416;SHT31;62850;42.428;25.618;2023-05-07T16:27:15;22.79;35.86
74416;SHT31;62850;42.428;25.618;2023-05-07T16:29:41;22.74;35.63
74416;SHT31;62850;42.428;25.618;2023-05-07T16:32:06;22.64;35.93
74416;SHT31;62850;42.428;25.618;2023-05-07T16:34:31;22.57;35.58
74416;SHT31;62850;42.428;25.618;2023-05-07T16:36:57;22.43;36.31
74416;SHT31;62850;42.428;25.618;2023-05-07T16:39:22;22.39;36.09
74416;SHT31;62850;42.428;25.618;2023-05-07T16:41:48;22.30;36.23
74416;SHT31;62850;42.428;25.618;2023-05-07T16:44:15;22.28;36.25
74416;SHT31;62850;42.428;25.618;2023-05-07T16:46:41;22.19;36.43
74416;SHT31;62850;42.428;25.618;2023-05-07T16:49:06;22.14;36.63
74416;SHT31;62850;42.428;25.618;2023-05-07T16:51:34;22.17;36.73
74416;SHT31;62850;42.428;25.618;2023-05-07T16:54:00;22.06;37.10
74416;SHT31;62850;42.428;25.618;2023-05-07T16:56:26;21.96;37.15
74416;SHT31;62850;42.428;25.618;2023-05-07T16:58:51;21.88;37.30
74416;SHT31;62850;42.428;25.618;2023-05-07T17:01:17;21.83;37.30
74416;SHT31;62850;42.428;25.618;2023-05-07T17:03:43;21.77;37.32
74416;SHT31;62850;42.428;25.618;2023-05-07T17:06:09;21.66;37.85
74416;SHT31;62850;42.428;25.618;2023-05-07T17:08:41;21.65;37.47
74416;SHT31;62850;42.428;25.618;2023-05-07T17:11:07;21.55;38.24
74416;SHT31;62850;42.428;25.618;2023-05-07T17:13:33;21.44;38.54
74416;SHT31;62850;42.428;25.618;2023-05-07T17:15:58;21.37;38.64
74416;SHT31;62850;42.428;25.618;2023-05-07T17:18:24;21.28;38.64
74416;SHT31;62850;42.428;25.618;2023-05-07T17:20:50;21.28;38.58
74416;SHT31;62850;42.428;25.618;2023-05-07T17:23:16;21.23;38.74